createdAt,value
2023-04-08T00:00:28.957Z,79.4
2023-04-08T00:01:45.968Z,79.5
2023-04-08T00:03:03.179Z,79.3
2023-04-08T00:04:20.001Z,79
2023-04-08T00:05:36.924Z,79.1
2023-04-08T00:06:53.898Z,79.4
2023-04-08T00:08:10.980Z,79.7
2023-04-08T00:09:27.899Z,80
2023-04-08T00:10:44.888Z,80.2
2023-04-08T00:12:01.935Z,80.4
2023-04-08T00:13:19.529Z,80.4
2023-04-08T00:14:36.882Z,80.5
2023-04-08T00:15:53.953Z,80.6
2023-04-08T00:17:11.033Z,81.1
2023-04-08T00:18:27.954Z,81
2023-04-08T00:19:44.918Z,81.1
2023-04-08T00:21:01.995Z,81.2
2023-04-08T00:22:19.306Z,81.5
2023-04-08T00:23:36.973Z,81.6
2023-04-08T00:24:53.923Z,82.1
2023-04-08T00:26:10.954Z,82.4
2023-04-08T00:27:27.932Z,82.9
2023-04-08T00:28:44.947Z,83.2
2023-04-08T00:30:02.003Z,83.1
2023-04-08T00:31:19.060Z,83
2023-04-08T00:32:35.954Z,82.6
2023-04-08T00:33:52.937Z,82.1
2023-04-08T00:35:09.990Z,81.7
2023-04-08T00:36:26.932Z,81.4
2023-04-08T00:37:43.943Z,81
2023-04-08T00:39:00.952Z,80.7
2023-04-08T00:40:18.017Z,80.5
2023-04-08T00:41:34.937Z,80.2
2023-04-08T00:42:51.981Z,79.9
2023-04-08T00:44:08.925Z,79.6
2023-04-08T00:45:25.959Z,79.4
2023-04-08T00:46:43.033Z,79.5
2023-04-08T00:48:00.025Z,79.5
2023-04-08T00:49:17.094Z,79.5
2023-04-08T00:50:34.605Z,79.6
2023-04-08T00:51:51.500Z,79.7
2023-04-08T00:53:09.222Z,79.7
2023-04-08T00:54:26.081Z,79.7
2023-04-08T00:55:45.634Z,79.3
2023-04-08T00:57:02.956Z,79.2
2023-04-08T00:58:20.040Z,79.2
2023-04-08T00:59:36.970Z,79.2
2023-04-08T01:00:53.972Z,79.2
2023-04-08T01:02:11.040Z,79.2
2023-04-08T01:03:28.087Z,79.1
2023-04-08T01:04:45.023Z,79.2
2023-04-08T01:06:01.986Z,79.7
2023-04-08T01:07:19.111Z,80.5
2023-04-08T01:08:36.025Z,80.9
2023-04-08T01:09:52.991Z,81.7
2023-04-08T01:11:09.980Z,82.5
2023-04-08T01:12:27.108Z,83.3
2023-04-08T01:13:44.011Z,83.9
2023-04-08T01:15:00.999Z,84.6
2023-04-08T01:16:18.159Z,85.4
2023-04-08T01:17:35.085Z,85.6
2023-04-08T01:18:52.091Z,86.7
2023-04-08T01:20:09.016Z,87.2
2023-04-08T01:21:26.142Z,87.3
2023-04-08T01:22:42.990Z,87.3
2023-04-08T01:24:00.356Z,87.3
2023-04-08T01:25:17.045Z,87.6
2023-04-08T01:26:34.028Z,87.8
2023-04-08T01:27:51.129Z,87.7
2023-04-08T01:29:08.019Z,87.3
2023-04-08T01:30:25.026Z,87.3
2023-04-08T01:31:42.065Z,87.2
2023-04-08T01:32:59.043Z,87
2023-04-08T01:34:16.036Z,87.1
2023-04-08T01:35:33.046Z,87.4
2023-04-08T01:36:50.041Z,88
2023-04-08T01:38:07.029Z,88.5
2023-04-08T01:39:24.052Z,88.6
2023-04-08T01:40:41.020Z,88.4
2023-04-08T01:41:58.026Z,88
2023-04-08T01:43:15.049Z,87.3
2023-04-08T01:44:32.335Z,86.6
2023-04-08T01:45:49.507Z,85.5
2023-04-08T01:47:06.066Z,84.8
2023-04-08T01:48:23.055Z,84.2
2023-04-08T01:49:40.045Z,84
2023-04-08T01:50:57.061Z,84
2023-04-08T01:52:14.014Z,84.2
2023-04-08T01:53:31.048Z,84.4
2023-04-08T01:54:48.090Z,84.6
2023-04-08T01:56:05.048Z,85
2023-04-08T01:57:22.391Z,85.1
2023-04-08T01:58:39.069Z,84.9
2023-04-08T01:59:56.332Z,84.7
2023-04-08T02:01:13.049Z,84.7
2023-04-08T02:02:30.153Z,84.5
2023-04-08T02:03:48.559Z,84.2
2023-04-08T02:05:06.079Z,84.1
2023-04-08T02:06:23.071Z,83.9
2023-04-08T02:07:40.088Z,83.5
2023-04-08T02:08:57.062Z,82.8
2023-04-08T02:10:14.081Z,82.4
2023-04-08T02:11:31.069Z,82.1
2023-04-08T02:12:48.109Z,81.8
2023-04-08T02:14:05.074Z,81.3
2023-04-08T02:15:22.120Z,81.1
2023-04-08T02:16:39.122Z,80.7
2023-04-08T02:17:56.697Z,80.3
2023-04-08T02:19:14.117Z,80.2
2023-04-08T02:20:31.081Z,79.7
2023-04-08T02:21:48.093Z,79.4
2023-04-08T02:23:05.086Z,79.2
2023-04-08T02:24:22.138Z,79.1
2023-04-08T02:25:39.086Z,79.3
2023-04-08T02:26:56.097Z,79
2023-04-08T02:28:13.113Z,78.5
2023-04-08T02:29:30.136Z,77.9
2023-04-08T02:30:47.105Z,77.1
2023-04-08T02:32:04.127Z,76.8
2023-04-08T02:33:21.100Z,76.9
2023-04-08T02:34:38.127Z,77.6
2023-04-08T02:35:55.194Z,78.2
2023-04-08T02:37:12.127Z,79
2023-04-08T02:38:29.100Z,79.2
2023-04-08T02:39:46.254Z,79.5
2023-04-08T02:41:03.138Z,79.9
2023-04-08T02:42:20.145Z,80
2023-04-08T02:43:37.091Z,79.7
2023-04-08T02:44:54.609Z,79.6
2023-04-08T02:46:12.242Z,79.3
2023-04-08T02:47:29.134Z,79.1
2023-04-08T02:48:46.105Z,79.2
2023-04-08T02:50:03.311Z,79.4
2023-04-08T02:51:20.109Z,79.4
2023-04-08T02:52:37.154Z,79.5
2023-04-08T02:53:54.133Z,79.5
2023-04-08T02:55:11.202Z,79.7
2023-04-08T02:56:28.113Z,80
2023-04-08T02:57:45.141Z,80.2
2023-04-08T02:59:02.108Z,80.6
2023-04-08T03:00:19.241Z,80.9
2023-04-08T03:01:36.224Z,81.1
2023-04-08T03:02:53.294Z,80.8
2023-04-08T03:04:10.131Z,80.6
2023-04-08T03:05:27.239Z,80.5
2023-04-08T03:06:44.144Z,80.2
2023-04-08T03:08:01.204Z,80.2
2023-04-08T03:09:18.133Z,80.5
2023-04-08T03:10:35.197Z,80.5
2023-04-08T03:11:52.138Z,80.4
2023-04-08T03:13:09.136Z,80.3
2023-04-08T03:14:26.451Z,80
2023-04-08T03:15:43.234Z,79.3
2023-04-08T03:17:00.180Z,79.3
2023-04-08T03:18:17.142Z,79.3
2023-04-08T03:19:34.140Z,79
2023-04-08T03:20:51.196Z,79.1
2023-04-08T03:22:08.148Z,79.5
2023-04-08T03:23:25.179Z,79.8
2023-04-08T03:24:42.386Z,79.6
2023-04-08T03:25:59.170Z,79.4
2023-04-08T03:27:16.195Z,79
2023-04-08T03:28:33.169Z,78.7
2023-04-08T03:29:50.169Z,78.7
2023-04-08T03:31:07.168Z,79
2023-04-08T03:32:24.196Z,79.2
2023-04-08T03:33:41.187Z,79.9
2023-04-08T03:34:58.163Z,80.2
2023-04-08T03:36:15.200Z,80.6
2023-04-08T03:37:32.191Z,80.9
2023-04-08T03:38:49.438Z,81
2023-04-08T03:40:06.302Z,81.1
2023-04-08T03:41:23.197Z,81
2023-04-08T03:42:40.183Z,80.6
2023-04-08T03:43:57.209Z,80.3
2023-04-08T03:45:14.202Z,80.5
2023-04-08T03:46:31.859Z,80.2
2023-04-08T03:47:49.315Z,80
2023-04-08T03:49:06.202Z,79.9
2023-04-08T03:50:23.180Z,79.7
2023-04-08T03:51:40.232Z,79.2
2023-04-08T03:52:57.290Z,78.9
2023-04-08T03:54:14.221Z,78.7
2023-04-08T03:55:31.264Z,79
2023-04-08T03:56:48.211Z,79.2
2023-04-08T03:58:05.239Z,79
2023-04-08T03:59:22.218Z,79.1
2023-04-08T04:00:39.317Z,79
2023-04-08T04:01:56.689Z,78.8
2023-04-08T04:03:14.397Z,78.7
2023-04-08T04:04:31.234Z,78.5
2023-04-08T04:05:48.254Z,78
2023-04-08T04:07:05.248Z,78
2023-04-08T04:08:22.281Z,77.9
2023-04-08T04:09:39.239Z,77.8
2023-04-08T04:10:56.351Z,77.6
2023-04-08T04:12:13.249Z,77.2
2023-04-08T04:13:30.372Z,76.3
2023-04-08T04:14:47.227Z,75.9
2023-04-08T04:16:04.395Z,75.8
2023-04-08T04:17:21.254Z,75.9
2023-04-08T04:18:38.285Z,76.4
2023-04-08T04:19:55.243Z,77.2
2023-04-08T04:21:12.309Z,77.6
2023-04-08T04:22:29.244Z,78.1
2023-04-08T04:23:46.249Z,78.3
2023-04-08T04:25:03.359Z,78.3
2023-04-08T04:26:20.246Z,78.3
2023-04-08T04:27:37.287Z,78.6
2023-04-08T04:28:54.289Z,78.9
2023-04-08T04:30:11.258Z,78.9
2023-04-08T04:31:28.387Z,78.6
2023-04-08T04:32:45.326Z,78.2
2023-04-08T04:34:02.738Z,78
2023-04-08T04:35:19.290Z,78
2023-04-08T04:36:36.245Z,78.1
2023-04-08T04:37:53.333Z,77.8
2023-04-08T04:39:10.307Z,77.5
2023-04-08T04:40:27.370Z,77.3
2023-04-08T04:41:44.290Z,77.2
2023-04-08T04:43:01.562Z,77.2
2023-04-08T04:44:18.311Z,77.6
2023-04-08T04:45:35.274Z,77.9
2023-04-08T04:46:52.377Z,77.8
2023-04-08T04:48:09.262Z,77.2
2023-04-08T04:49:26.254Z,76.6
2023-04-08T04:50:43.323Z,76.4
2023-04-08T04:52:00.317Z,76.4
2023-04-08T04:53:17.439Z,76.3
2023-04-08T04:54:34.284Z,76.2
2023-04-08T04:55:51.307Z,75.9
2023-04-08T04:57:08.322Z,75.7
2023-04-08T04:58:25.304Z,75.4
2023-04-08T04:59:42.315Z,75.3
2023-04-08T05:00:59.312Z,75.2
2023-04-08T05:02:16.315Z,75.1
2023-04-08T05:03:33.409Z,75
2023-04-08T05:04:50.331Z,75.2
2023-04-08T05:06:07.351Z,75.7
2023-04-08T05:07:24.409Z,76.2
2023-04-08T05:08:41.404Z,76.7
2023-04-08T05:09:59.358Z,77.1
2023-04-08T05:11:16.362Z,77.8
2023-04-08T05:12:33.402Z,78.2
2023-04-08T05:13:50.343Z,78.3
2023-04-08T05:15:07.346Z,78.2
2023-04-08T05:16:24.319Z,77.7
2023-04-08T05:17:41.492Z,77.1
2023-04-08T05:18:58.324Z,76.6
2023-04-08T05:20:17.128Z,75.9
2023-04-08T05:21:32.356Z,75.3
2023-04-08T05:22:49.371Z,75.1
2023-04-08T05:24:06.361Z,74.8
2023-04-08T05:25:23.400Z,74.5
2023-04-08T05:26:40.357Z,74.2
2023-04-08T05:27:57.400Z,74
2023-04-08T05:29:14.372Z,74
2023-04-08T05:30:31.348Z,74.2
2023-04-08T05:31:48.593Z,74.5
2023-04-08T05:33:05.457Z,74.9
2023-04-08T05:34:22.350Z,74.7
2023-04-08T05:35:39.431Z,74.5
2023-04-08T05:36:56.361Z,74.6
2023-04-08T05:38:13.706Z,74.5
2023-04-08T05:39:30.472Z,74.4
2023-04-08T05:40:47.552Z,74.5
2023-04-08T05:42:04.542Z,74.3
2023-04-08T05:43:21.433Z,74.4
2023-04-08T05:44:38.418Z,74.8
2023-04-08T05:45:55.408Z,74.7
2023-04-08T05:47:12.445Z,74.6
2023-04-08T05:48:29.375Z,74.4
2023-04-08T05:49:48.904Z,73.9
2023-04-08T05:51:04.433Z,73.8
2023-04-08T05:52:21.380Z,73.9
2023-04-08T05:53:38.427Z,74.3
2023-04-08T05:54:56.292Z,74.5
2023-04-08T05:56:13.399Z,74.7
2023-04-08T05:57:30.396Z,74.8
2023-04-08T05:58:47.438Z,75.1
2023-04-08T06:00:04.468Z,75.3
2023-04-08T06:01:21.423Z,75.2
2023-04-08T06:02:38.822Z,74.9
2023-04-08T06:03:55.505Z,75
2023-04-08T06:05:12.521Z,74.9
2023-04-08T06:06:29.418Z,74.2
2023-04-08T06:07:46.454Z,73.7
2023-04-08T06:09:03.411Z,73.5
2023-04-08T06:10:20.409Z,73.3
2023-04-08T06:11:37.393Z,73.2
2023-04-08T06:12:54.644Z,73.2
2023-04-08T06:14:11.394Z,73.3
2023-04-08T06:15:28.458Z,72.5
2023-04-08T06:16:45.523Z,71.8
2023-04-08T06:18:02.483Z,71.1
2023-04-08T06:19:19.474Z,70.4
2023-04-08T06:20:36.447Z,69.9
2023-04-08T06:21:53.420Z,68.8
2023-04-08T06:23:10.497Z,67.6
2023-04-08T06:24:27.500Z,67.6
2023-04-08T06:25:44.799Z,67.6
2023-04-08T06:27:01.426Z,68
2023-04-08T06:28:18.436Z,67.9
2023-04-08T06:29:35.397Z,66.9
2023-04-08T06:30:52.757Z,66.6
2023-04-08T06:32:09.438Z,66.3
2023-04-08T06:33:27.087Z,65.8
2023-04-08T06:34:44.457Z,65.9
2023-04-08T06:36:01.497Z,65.7
2023-04-08T06:37:18.454Z,66.4
2023-04-08T06:38:35.429Z,66.7
2023-04-08T06:39:52.455Z,67.5
2023-04-08T06:41:09.420Z,68.5
2023-04-08T06:42:26.518Z,69.6
2023-04-08T06:43:43.502Z,70.5
2023-04-08T06:45:00.457Z,70.7
2023-04-08T06:46:17.535Z,70.3
2023-04-08T06:47:34.773Z,70.3
2023-04-08T06:48:51.732Z,70.9
2023-04-08T06:50:08.438Z,71
2023-04-08T06:51:25.480Z,71.1
2023-04-08T06:52:42.739Z,71.6
2023-04-08T06:53:59.434Z,71.5
2023-04-08T06:55:16.470Z,71.3
2023-04-08T06:56:33.446Z,71
2023-04-08T06:57:50.497Z,70.9
2023-04-08T06:59:07.490Z,70.7
2023-04-08T07:00:24.575Z,70.4
2023-04-08T07:01:41.540Z,69.8
2023-04-08T07:02:58.768Z,69.8
2023-04-08T07:04:15.648Z,69.7
2023-04-08T07:05:32.498Z,69.6
2023-04-08T07:06:49.455Z,69.2
2023-04-08T07:08:06.533Z,69.1
2023-04-08T07:09:23.458Z,68.9
2023-04-08T07:10:40.478Z,68.7
2023-04-08T07:11:57.511Z,69.3
2023-04-08T07:13:14.913Z,69.8
2023-04-08T07:14:32.524Z,69.9
2023-04-08T07:15:49.546Z,69.4
2023-04-08T07:17:06.511Z,69.3
2023-04-08T07:18:23.543Z,69.1
2023-04-08T07:19:40.472Z,68.6
2023-04-08T07:20:57.549Z,68
2023-04-08T07:22:14.498Z,67.1
2023-04-08T07:23:31.545Z,67
2023-04-08T07:24:48.480Z,67.3
2023-04-08T07:26:05.548Z,67.9
2023-04-08T07:27:22.586Z,68.9
2023-04-08T07:28:39.519Z,69.1
2023-04-08T07:29:56.520Z,69.4
2023-04-08T07:31:13.611Z,69.9
2023-04-08T07:32:30.537Z,69.4
2023-04-08T07:33:47.612Z,69.2
2023-04-08T07:35:04.494Z,68.7
2023-04-08T07:36:21.647Z,68.7
2023-04-08T07:37:38.506Z,69
2023-04-08T07:38:55.493Z,69.3
2023-04-08T07:40:12.535Z,69.2
2023-04-08T07:41:29.522Z,68.3
2023-04-08T07:42:46.608Z,68.2
2023-04-08T07:44:06.734Z,68.6
2023-04-08T07:45:23.580Z,68.9
2023-04-08T07:46:40.752Z,68.4
2023-04-08T07:47:57.616Z,68.7
2023-04-08T07:49:14.594Z,68.4
2023-04-08T07:50:31.517Z,68.1
2023-04-08T07:51:48.584Z,67.3
2023-04-08T07:53:06.609Z,67.1
2023-04-08T07:54:22.736Z,66.6
2023-04-08T07:55:39.577Z,66.7
2023-04-08T07:56:56.533Z,66.6
2023-04-08T07:58:13.516Z,66.1
2023-04-08T07:59:30.930Z,65.8
2023-04-08T08:00:48.559Z,66.1
2023-04-08T08:02:05.588Z,66.8
2023-04-08T08:03:22.634Z,67.4
2023-04-08T08:04:40.589Z,67.9
2023-04-08T08:05:57.590Z,67.8
2023-04-08T08:07:14.521Z,67.5
2023-04-08T08:08:31.522Z,67.3
2023-04-08T08:09:48.637Z,67.2
2023-04-08T08:11:05.556Z,67.7
2023-04-08T08:12:22.751Z,68.7
2023-04-08T08:13:39.535Z,68.7
2023-04-08T08:14:56.585Z,68.2
2023-04-08T08:16:13.724Z,67.8
2023-04-08T08:17:30.599Z,68
2023-04-08T08:18:47.757Z,68.6
2023-04-08T08:20:04.617Z,69
2023-04-08T08:21:21.581Z,68.9
2023-04-08T08:22:47.095Z,68.3
2023-04-08T08:23:55.554Z,68.1
2023-04-08T08:25:12.808Z,67.7
2023-04-08T08:26:29.598Z,67.7
2023-04-08T08:27:46.810Z,68
2023-04-08T08:29:03.644Z,67.6
2023-04-08T08:30:20.606Z,67.2
2023-04-08T08:31:37.728Z,66.9
2023-04-08T08:32:55.562Z,67.1
2023-04-08T08:34:12.739Z,67.2
2023-04-08T08:35:29.651Z,67.9
2023-04-08T08:36:46.577Z,68.2
2023-04-08T08:38:03.656Z,68
2023-04-08T08:39:20.597Z,68.1
2023-04-08T08:40:37.579Z,68.2
2023-04-08T08:41:54.626Z,68.6
2023-04-08T08:43:11.739Z,68.3
2023-04-08T08:44:28.575Z,67.3
2023-04-08T08:45:45.585Z,66.7
2023-04-08T08:47:02.720Z,66.4
2023-04-08T08:48:19.694Z,66.1
2023-04-08T08:49:36.693Z,65.7
2023-04-08T08:50:53.616Z,65.4
2023-04-08T08:52:10.613Z,65
2023-04-08T08:53:27.592Z,64.6
2023-04-08T08:54:44.638Z,64.3
2023-04-08T08:56:16.963Z,64.7
2023-04-08T08:57:18.628Z,64.8
2023-04-08T08:58:35.691Z,64.5
2023-04-08T08:59:53.006Z,64
2023-04-08T09:01:09.615Z,63.1
2023-04-08T09:02:26.841Z,62.7
2023-04-08T09:03:43.942Z,62.7
2023-04-08T09:05:00.825Z,62
2023-04-08T09:06:17.641Z,62
2023-04-08T09:07:34.766Z,62.3
2023-04-08T09:08:51.654Z,62.6
2023-04-08T09:10:08.712Z,62.2
2023-04-08T09:11:26.467Z,61.7
2023-04-08T09:12:43.680Z,61.5
2023-04-08T09:14:00.677Z,61.4
2023-04-08T09:15:17.716Z,61.4
2023-04-08T09:16:34.717Z,60.6
2023-04-08T09:17:51.773Z,59.9
2023-04-08T09:19:08.720Z,59.2
2023-04-08T09:20:25.650Z,58.5
2023-04-08T09:21:42.726Z,58.6
2023-04-08T09:22:59.671Z,59.5
2023-04-08T09:24:17.815Z,60.8
2023-04-08T09:25:33.798Z,61.8
2023-04-08T09:26:50.629Z,62.6
2023-04-08T09:28:07.745Z,62.6
2023-04-08T09:29:26.123Z,62.7
2023-04-08T09:30:41.669Z,63
2023-04-08T09:31:58.780Z,62.8
2023-04-08T09:33:15.699Z,63.2
2023-04-08T09:34:32.723Z,63
2023-04-08T09:35:49.732Z,63.4
2023-04-08T09:37:06.680Z,63
2023-04-08T09:38:23.694Z,62.4
2023-04-08T09:39:40.666Z,62.2
2023-04-08T09:40:57.742Z,61.4
2023-04-08T09:42:14.664Z,60.7
2023-04-08T09:43:31.673Z,60.6
2023-04-08T09:44:48.701Z,61.1
2023-04-08T09:46:05.930Z,61.4
2023-04-08T09:47:22.759Z,61.2
2023-04-08T09:48:39.754Z,60.7
2023-04-08T09:49:56.743Z,60.2
2023-04-08T09:51:13.768Z,59.1
2023-04-08T09:52:30.687Z,58.9
2023-04-08T09:53:47.769Z,58.8
2023-04-08T09:55:04.748Z,59.2
2023-04-08T09:56:21.785Z,59.4
2023-04-08T09:57:38.705Z,59.7
2023-04-08T09:58:55.730Z,59.5
2023-04-08T10:00:12.763Z,59.2
2023-04-08T10:01:29.874Z,59.4
2023-04-08T10:02:46.889Z,60.2
2023-04-08T10:04:03.904Z,60.3
2023-04-08T10:05:20.725Z,60.5
2023-04-08T10:06:37.736Z,60.3
2023-04-08T10:07:54.680Z,60
2023-04-08T10:09:11.804Z,59.7
2023-04-08T10:10:28.745Z,59.3
2023-04-08T10:11:45.755Z,58.9
2023-04-08T10:13:02.722Z,58.8
2023-04-08T10:14:19.707Z,58.2
2023-04-08T10:15:36.730Z,58
2023-04-08T10:16:53.820Z,58.1
2023-04-08T10:18:10.705Z,57.9
2023-04-08T10:19:27.987Z,57.6
2023-04-08T10:20:44.748Z,57.1
2023-04-08T10:22:01.782Z,57.5
2023-04-08T10:23:18.877Z,57.5
2023-04-08T10:24:35.764Z,58
2023-04-08T10:25:52.740Z,58.9
2023-04-08T10:27:09.731Z,59.8
2023-04-08T10:28:26.743Z,60.5
2023-04-08T10:29:43.787Z,61
2023-04-08T10:31:00.874Z,60.9
2023-04-08T10:32:17.781Z,61.1
2023-04-08T10:33:35.333Z,61.3
2023-04-08T10:34:51.793Z,61
2023-04-08T10:36:08.774Z,60.7
2023-04-08T10:37:25.764Z,61.3
2023-04-08T10:38:42.888Z,61.1
2023-04-08T10:39:59.757Z,59.9
2023-04-08T10:41:16.738Z,59.3
2023-04-08T10:42:33.739Z,58.4
2023-04-08T10:43:51.004Z,58.6
2023-04-08T10:45:07.889Z,58.8
2023-04-08T10:46:24.747Z,57.5
2023-04-08T10:47:41.836Z,55.4
2023-04-08T10:48:58.766Z,54.5
2023-04-08T10:50:15.972Z,53.9
2023-04-08T10:51:33.810Z,53.6
2023-04-08T10:52:49.825Z,53.2
2023-04-08T10:54:06.805Z,53.2
2023-04-08T10:55:23.923Z,53.5
2023-04-08T10:56:40.806Z,54.1
2023-04-08T10:57:58.316Z,54.6
2023-04-08T10:59:14.786Z,54.4
2023-04-08T11:00:31.773Z,53.5
2023-04-08T11:01:48.896Z,53.3
2023-04-08T11:03:05.991Z,52.5
2023-04-08T11:04:22.914Z,52.6
2023-04-08T11:05:39.844Z,52.1
2023-04-08T11:06:56.896Z,51.1
2023-04-08T11:08:13.988Z,50.1
2023-04-08T11:09:30.808Z,49.6
2023-04-08T11:10:48.176Z,48.9
2023-04-08T11:12:04.895Z,48.2
2023-04-08T11:13:21.827Z,47.4
2023-04-08T11:14:39.494Z,47.2
2023-04-08T11:15:57.656Z,47.6
2023-04-08T11:17:15.241Z,48.3
2023-04-08T11:18:31.832Z,48.8
2023-04-08T11:19:48.842Z,48.9
2023-04-08T11:21:05.837Z,48.7
2023-04-08T11:22:22.802Z,47.8
2023-04-08T11:23:39.895Z,46.8
2023-04-08T11:24:56.846Z,45.7
2023-04-08T11:26:14.280Z,45.3
2023-04-08T11:27:31.935Z,46.4
2023-04-08T11:28:48.880Z,47.9
2023-04-08T11:30:05.869Z,49.1
2023-04-08T11:31:24.792Z,49.9
2023-04-08T11:32:41.518Z,50.3
2023-04-08T11:34:00.195Z,50.7
2023-04-08T11:35:18.848Z,51
2023-04-08T11:36:39.350Z,51.5
2023-04-08T11:37:57.581Z,51
2023-04-08T11:39:15.508Z,50
2023-04-08T11:40:34.600Z,49.5
2023-04-08T11:41:53.591Z,49.4
2023-04-08T11:43:12.929Z,48.5
2023-04-08T11:44:30.340Z,47.8
2023-04-08T11:45:49.504Z,47.5
2023-04-08T11:47:07.419Z,46.9
2023-04-08T11:48:25.418Z,46
2023-04-08T11:49:42.294Z,44.7
2023-04-08T11:50:59.698Z,45
2023-04-08T11:52:18.326Z,45.9
2023-04-08T11:53:36.273Z,47
2023-04-08T11:54:54.347Z,48
2023-04-08T11:56:15.398Z,47.7
2023-04-08T11:57:33.425Z,47.8
2023-04-08T11:58:52.243Z,48.1
2023-04-08T12:00:10.485Z,48.1
2023-04-08T12:01:28.539Z,48.2
2023-04-08T12:02:47.542Z,48.3
2023-04-08T12:04:05.950Z,48.9
2023-04-08T12:05:26.195Z,49.6
2023-04-08T12:06:43.719Z,50.1
2023-04-08T12:08:04.559Z,49.1
2023-04-08T12:09:24.031Z,49.4
2023-04-08T12:10:42.475Z,48.7
2023-04-08T12:12:01.169Z,48.3
2023-04-08T12:13:19.524Z,48.7
2023-04-08T12:14:38.531Z,48.9
2023-04-08T12:15:57.905Z,49.1
2023-04-08T12:17:16.348Z,49
2023-04-08T12:18:33.632Z,48.1
2023-04-08T12:19:51.638Z,47.7
2023-04-08T12:21:11.852Z,47.7
2023-04-08T12:22:29.729Z,47.7
2023-04-08T12:23:47.824Z,47.8
2023-04-08T12:25:06.705Z,48.1
2023-04-08T12:26:26.352Z,48.3
2023-04-08T12:27:43.636Z,48.3
2023-04-08T12:29:02.799Z,47.9
2023-04-08T12:30:22.297Z,47.6
2023-04-08T12:31:43.627Z,47.5
2023-04-08T12:33:04.963Z,48.3
2023-04-08T12:34:23.749Z,48.2
2023-04-08T12:35:41.997Z,48.2
2023-04-08T12:37:00.294Z,48.5
2023-04-08T12:38:17.704Z,48.1
2023-04-08T12:39:36.892Z,47.2
2023-04-08T12:40:55.937Z,47.5
2023-04-08T12:42:14.391Z,47.7
2023-04-08T12:43:32.516Z,47.7
2023-04-08T12:44:51.963Z,46.3
2023-04-08T12:46:09.749Z,44.9
2023-04-08T12:47:29.737Z,43.1
2023-04-08T12:48:51.392Z,42.9
2023-04-08T12:50:07.241Z,42.6
2023-04-08T12:51:25.509Z,42.4
2023-04-08T12:52:45.465Z,42.1
2023-04-08T12:54:03.970Z,42
2023-04-08T12:55:21.891Z,41.7
2023-04-08T12:56:41.044Z,41.4
2023-04-08T12:57:58.359Z,41.3
2023-04-08T12:59:16.528Z,42.1
2023-04-08T13:00:34.009Z,43.4
2023-04-08T13:01:52.239Z,43.9
2023-04-08T13:03:11.683Z,45.2
2023-04-08T13:04:30.865Z,45
2023-04-08T13:05:48.422Z,44.6
2023-04-08T13:07:05.458Z,43.9
2023-04-08T13:08:24.567Z,43.2
2023-04-08T13:09:41.416Z,42.1
2023-04-08T13:10:59.724Z,41
2023-04-08T13:12:18.275Z,39.8
2023-04-08T13:13:35.971Z,38.5
2023-04-08T13:14:54.235Z,38.6
2023-04-08T13:16:13.106Z,38.2
2023-04-08T13:17:32.325Z,39.5
2023-04-08T13:18:50.438Z,40.8
2023-04-08T13:20:08.047Z,41.7
2023-04-08T13:21:25.653Z,42.9
2023-04-08T13:22:45.768Z,43.2
2023-04-08T13:24:05.316Z,43.8
2023-04-08T13:25:23.491Z,45
2023-04-08T13:26:41.793Z,45.1
2023-04-08T13:28:00.200Z,44.7
2023-04-08T13:29:19.287Z,44.3
2023-04-08T13:30:37.371Z,44
2023-04-08T13:31:54.671Z,43.8
2023-04-08T13:33:12.550Z,42.4
2023-04-08T13:34:29.583Z,40.8
2023-04-08T13:35:47.903Z,40.2
2023-04-08T13:37:06.434Z,40.3
2023-04-08T13:38:24.684Z,41.6
2023-04-08T13:39:43.544Z,43.3
2023-04-08T13:41:00.749Z,43.9
2023-04-08T13:42:19.806Z,44.2
2023-04-08T13:43:38.118Z,44.2
2023-04-08T13:44:56.757Z,42.5
2023-04-08T13:46:15.432Z,41.4
2023-04-08T13:47:35.823Z,40.6
2023-04-08T13:48:53.148Z,40.3
2023-04-08T13:50:12.117Z,40.7
2023-04-08T13:51:30.605Z,41
2023-04-08T13:52:48.284Z,41.5
2023-04-08T13:54:05.670Z,42.1
2023-04-08T13:55:23.637Z,42.3
2023-04-08T13:56:41.730Z,42.1
2023-04-08T13:57:59.572Z,42.2
2023-04-08T13:59:17.575Z,42.3
2023-04-08T14:00:36.253Z,41.9
2023-04-08T14:01:53.799Z,42.3
2023-04-08T14:03:11.362Z,42.1
2023-04-08T14:04:29.746Z,41.8
2023-04-08T14:05:47.648Z,41.3
2023-04-08T14:07:04.871Z,41.7
2023-04-08T14:08:23.508Z,42
2023-04-08T14:09:42.210Z,42.8
2023-04-08T14:10:59.696Z,43.7
2023-04-08T14:12:17.552Z,44.2
2023-04-08T14:13:34.545Z,44.4
2023-04-08T14:14:52.363Z,44.7
2023-04-08T14:16:10.059Z,44.8
2023-04-08T14:17:28.285Z,44.5
2023-04-08T14:18:45.528Z,44.1
2023-04-08T14:20:03.729Z,43.8
2023-04-08T14:21:22.185Z,43.4
2023-04-08T14:22:39.525Z,42.9
2023-04-08T14:23:57.822Z,42.5
2023-04-08T14:25:16.534Z,42.5
2023-04-08T14:26:33.796Z,42.7
2023-04-08T14:27:57.762Z,42.4
2023-04-08T14:29:11.623Z,42.2
2023-04-08T14:30:28.724Z,42
2023-04-08T14:31:45.602Z,41.8
2023-04-08T14:33:03.291Z,41.8
2023-04-08T14:34:21.114Z,42.2
2023-04-08T14:35:38.500Z,42
2023-04-08T14:36:57.600Z,41.7
2023-04-08T14:38:15.851Z,41.9
2023-04-08T14:39:34.462Z,42
2023-04-08T14:40:52.456Z,42.4
2023-04-08T14:42:11.764Z,43.1
2023-04-08T14:43:29.644Z,43
2023-04-08T14:44:48.148Z,43.3
2023-04-08T14:46:06.808Z,43.8
2023-04-08T14:47:26.292Z,44.7
2023-04-08T14:48:45.243Z,45.3
2023-04-08T14:50:03.452Z,45.3
2023-04-08T14:51:20.427Z,45.4
2023-04-08T14:52:37.251Z,45.6
2023-04-08T14:53:54.650Z,45.4
2023-04-08T14:55:13.471Z,45.1
2023-04-08T14:56:31.015Z,45.2
2023-04-08T14:57:48.453Z,44.5
2023-04-08T14:59:06.364Z,44
2023-04-08T15:00:24.074Z,44
2023-04-08T15:01:41.440Z,44.1
2023-04-08T15:02:59.531Z,44
2023-04-08T15:04:17.659Z,44.4
2023-04-08T15:05:36.634Z,44.4
2023-04-08T15:06:51.495Z,44.4
2023-04-08T15:08:08.498Z,44
2023-04-08T15:09:25.722Z,43.6
2023-04-08T15:10:42.434Z,43.6
2023-04-08T15:11:59.428Z,43.6
2023-04-08T15:13:16.563Z,43.5
2023-04-08T15:14:33.511Z,43.1
2023-04-08T15:15:50.493Z,43.3
2023-04-08T15:17:07.707Z,42.8
2023-04-08T15:18:24.603Z,42.8
2023-04-08T15:19:41.545Z,43
2023-04-08T15:21:00.641Z,42.9
2023-04-08T15:22:17.289Z,43.2
2023-04-08T15:23:34.506Z,43.2
2023-04-08T15:24:52.624Z,43.6
2023-04-08T15:26:10.236Z,43.4
2023-04-08T15:27:28.451Z,43.1
2023-04-08T15:28:45.626Z,43.1
2023-04-08T15:30:03.505Z,43.2
2023-04-08T15:31:22.595Z,42.8
2023-04-08T15:32:40.677Z,42.8
2023-04-08T15:33:57.591Z,42.7
2023-04-08T15:35:14.551Z,42.4
2023-04-08T15:36:32.165Z,42.7
2023-04-08T15:37:49.496Z,43.3
2023-04-08T15:39:06.941Z,44.1
2023-04-08T15:40:25.647Z,44.4
2023-04-08T15:41:43.011Z,44.4
2023-04-08T15:43:00.998Z,44.1
2023-04-08T15:44:18.803Z,44.3
2023-04-08T15:45:36.909Z,44.2
2023-04-08T15:46:55.692Z,44.3
2023-04-08T15:48:13.246Z,44.4
2023-04-08T15:49:31.551Z,44.3
2023-04-08T15:50:48.834Z,44.3
2023-04-08T15:52:06.516Z,44.4
2023-04-08T15:53:24.966Z,44.4
2023-04-08T15:54:43.738Z,44.6
2023-04-08T15:56:01.603Z,45
2023-04-08T15:57:18.770Z,45.5
2023-04-08T15:58:35.753Z,45.8
2023-04-08T15:59:52.741Z,46.1
2023-04-08T16:01:10.940Z,45.9
2023-04-08T16:02:30.080Z,45.5
2023-04-08T16:03:48.881Z,45.1
2023-04-08T16:05:05.691Z,45.1
2023-04-08T16:06:22.705Z,45.3
2023-04-08T16:07:39.601Z,45.2
2023-04-08T16:08:59.352Z,45.4
2023-04-08T16:10:18.479Z,45.5
2023-04-08T16:11:37.193Z,45.2
2023-04-08T16:12:54.977Z,44.8
2023-04-08T16:14:12.708Z,44.3
2023-04-08T16:15:29.603Z,44.4
2023-04-08T16:16:46.711Z,44.2
2023-04-08T16:18:03.873Z,43.9
2023-04-08T16:19:21.521Z,43.6
2023-04-08T16:20:38.994Z,43.8
2023-04-08T16:21:57.712Z,44.2
2023-04-08T16:23:15.817Z,44.4
2023-04-08T16:24:32.681Z,44.3
2023-04-08T16:25:50.771Z,44.4
2023-04-08T16:27:07.795Z,44
2023-04-08T16:28:24.952Z,44
2023-04-08T16:29:42.733Z,44
2023-04-08T16:30:59.671Z,43.8
2023-04-08T16:32:16.840Z,44.2
2023-04-08T16:33:34.671Z,44.3
2023-04-08T16:34:51.891Z,44.2
2023-04-08T16:36:11.310Z,43.9
2023-04-08T16:37:30.552Z,44.3
2023-04-08T16:38:50.670Z,44.4
2023-04-08T16:40:08.780Z,44.4
2023-04-08T16:41:25.946Z,44.4
2023-04-08T16:42:43.656Z,44.7
2023-04-08T16:44:00.921Z,45
2023-04-08T16:45:18.922Z,45.3
2023-04-08T16:46:37.375Z,45.2
2023-04-08T16:47:55.318Z,45.7
2023-04-08T16:49:15.062Z,46
2023-04-08T16:50:31.903Z,46.3
2023-04-08T16:51:50.923Z,46.7
2023-04-08T16:53:09.881Z,47.5
2023-04-08T16:54:27.974Z,47.8
2023-04-08T16:55:47.094Z,48
2023-04-08T16:57:08.597Z,47.9
2023-04-08T16:58:27.860Z,48.1
2023-04-08T16:59:45.050Z,47.9
2023-04-08T17:01:02.439Z,47.7
2023-04-08T17:02:19.747Z,47.6
2023-04-08T17:03:37.669Z,47.2
2023-04-08T17:04:54.626Z,46.9
2023-04-08T17:06:11.588Z,46.6
2023-04-08T17:07:28.494Z,46.4
2023-04-08T17:08:45.596Z,46.3
2023-04-08T17:10:02.577Z,46.3
2023-04-08T17:11:20.789Z,46.5
2023-04-08T17:12:37.465Z,46.8
2023-04-08T17:13:54.548Z,46.9
2023-04-08T17:15:11.470Z,47.1
2023-04-08T17:16:29.326Z,47.1
2023-04-08T17:17:46.572Z,47.8